sensor_id;sensor_type;location;lat;lon;timestamp;pressure;altitude;pressure_sealevel;temperature;humidity
62201;BME280;48197;42.732;27.192;2022-08-02T00:01:55;99307.72;;;18.41;79.09
62201;BME280;48197;42.732;27.192;2022-08-02T00:04:22;99309.56;;;18.53;78.86
62201;BME280;48197;42.732;27.192;2022-08-02T00:06:48;99304.41;;;18.70;78.61
62201;BME280;48197;42.732;27.192;2022-08-02T00:09:15;99309.94;;;18.98;77.52
62201;BME280;48197;42.732;27.192;2022-08-02T00:11:41;99307.69;;;19.11;77.00
62201;BME280;48197;42.732;27.192;2022-08-02T00:14:08;99307.84;;;19.17;76.57
62201;BME280;48197;42.732;27.192;2022-08-02T00:16:35;99309.97;;;19.31;76.26
62201;BME280;48197;42.732;27.192;2022-08-02T00:19:02;99311.75;;;19.44;75.59
62201;BME280;48197;42.732;27.192;2022-08-02T00:21:29;99315.28;;;19.53;75.13
62201;BME280;48197;42.732;27.192;2022-08-02T00:23:55;99317.72;;;19.61;74.68
62201;BME280;48197;42.732;27.192;2022-08-02T00:26:22;99309.59;;;19.72;74.11
62201;BME280;48197;42.732;27.192;2022-08-02T00:28:47;99309.81;;;19.59;74.21
62201;BME280;48197;42.732;27.192;2022-08-02T00:31:14;99312.09;;;19.36;74.61
62201;BME280;48197;42.732;27.192;2022-08-02T00:33:40;99311.09;;;19.15;75.21
62201;BME280;48197;42.732;27.192;2022-08-02T00:36:07;99310.84;;;19.04;75.37
62201;BME280;48197;42.732;27.192;2022-08-02T00:38:33;99316.97;;;18.93;75.58
62201;BME280;48197;42.732;27.192;2022-08-02T00:41:00;99311.88;;;18.83;75.82
62201;BME280;48197;42.732;27.192;2022-08-02T00:43:26;99313.72;;;18.76;75.83
62201;BME280;48197;42.732;27.192;2022-08-02T00:45:53;99316.84;;;18.69;76.18
62201;BME280;48197;42.732;27.192;2022-08-02T00:48:19;99318.72;;;18.63;76.28
62201;BME280;48197;42.732;27.192;2022-08-02T00:50:46;99321.06;;;18.55;76.46
62201;BME280;48197;42.732;27.192;2022-08-02T00:53:12;99317.03;;;18.47;76.86
62201;BME280;48197;42.732;27.192;2022-08-02T00:55:39;99318.44;;;18.43;77.26
62201;BME280;48197;42.732;27.192;2022-08-02T00:58:06;99321.09;;;18.46;77.21
62201;BME280;48197;42.732;27.192;2022-08-02T01:00:33;99317.97;;;18.44;77.41
62201;BME280;48197;42.732;27.192;2022-08-02T01:02:59;99322.81;;;18.44;77.51
62201;BME280;48197;42.732;27.192;2022-08-02T01:05:26;99325.75;;;18.40;77.74
62201;BME280;48197;42.732;27.192;2022-08-02T01:07:52;99320.00;;;18.34;77.89
62201;BME280;48197;42.732;27.192;2022-08-02T01:10:19;99310.53;;;18.32;78.06
62201;BME280;48197;42.732;27.192;2022-08-02T01:12:46;99316.59;;;18.30;78.21
62201;BME280;48197;42.732;27.192;2022-08-02T01:15:12;99318.59;;;18.30;78.47
62201;BME280;48197;42.732;27.192;2022-08-02T01:22:56;99312.06;;;18.42;78.36
62201;BME280;48197;42.732;27.192;2022-08-02T01:25:32;99313.00;;;18.48;78.17
62201;BME280;48197;42.732;27.192;2022-08-02T01:30:31;99307.72;;;18.50;77.94
62201;BME280;48197;42.732;27.192;2022-08-02T01:33:00;99308.94;;;18.59;77.67
62201;BME280;48197;42.732;27.192;2022-08-02T01:35:37;99309.06;;;18.64;77.48
62201;BME280;48197;42.732;27.192;2022-08-02T01:38:47;99310.47;;;18.60;77.70
62201;BME280;48197;42.732;27.192;2022-08-02T01:40:55;99308.34;;;18.54;77.77
62201;BME280;48197;42.732;27.192;2022-08-02T01:43:22;99317.34;;;18.49;77.92
62201;BME280;48197;42.732;27.192;2022-08-02T01:45:51;99306.47;;;18.42;78.34
62201;BME280;48197;42.732;27.192;2022-08-02T01:48:18;99316.25;;;18.56;78.08
62201;BME280;48197;42.732;27.192;2022-08-02T01:50:45;99318.13;;;18.59;77.68
62201;BME280;48197;42.732;27.192;2022-08-02T01:53:13;99318.41;;;18.61;77.84
62201;BME280;48197;42.732;27.192;2022-08-02T01:55:43;99318.25;;;18.65;77.37
62201;BME280;48197;42.732;27.192;2022-08-02T01:58:11;99316.38;;;18.62;77.61
62201;BME280;48197;42.732;27.192;2022-08-02T02:00:40;99322.75;;;18.62;77.50
62201;BME280;48197;42.732;27.192;2022-08-02T02:03:09;99323.72;;;18.59;77.42
62201;BME280;48197;42.732;27.192;2022-08-02T02:05:37;99325.88;;;18.55;77.21
62201;BME280;48197;42.732;27.192;2022-08-02T02:08:05;99318.41;;;18.61;77.81
62201;BME280;48197;42.732;27.192;2022-08-02T02:10:33;99322.28;;;18.82;77.50
62201;BME280;48197;42.732;27.192;2022-08-02T02:13:04;99314.88;;;19.03;76.86
62201;BME280;48197;42.732;27.192;2022-08-02T02:15:31;99322.47;;;19.21;76.06
62201;BME280;48197;42.732;27.192;2022-08-02T02:17:59;99318.97;;;19.35;75.21
62201;BME280;48197;42.732;27.192;2022-08-02T02:20:27;99323.25;;;19.46;74.53
62201;BME280;48197;42.732;27.192;2022-08-02T02:22:54;99319.06;;;19.50;74.16
62201;BME280;48197;42.732;27.192;2022-08-02T02:25:21;99322.94;;;19.53;73.90
62201;BME280;48197;42.732;27.192;2022-08-02T02:28:01;99326.78;;;19.55;73.58
62201;BME280;48197;42.732;27.192;2022-08-02T02:30:29;99324.47;;;19.54;73.43
62201;BME280;48197;42.732;27.192;2022-08-02T02:32:57;99324.75;;;19.56;73.26
62201;BME280;48197;42.732;27.192;2022-08-02T02:41:27;99330.72;;;19.49;73.30
62201;BME280;48197;42.732;27.192;2022-08-02T02:43:54;99330.56;;;19.52;73.33
62201;BME280;48197;42.732;27.192;2022-08-02T02:46:21;99329.91;;;19.57;73.12
62201;BME280;48197;42.732;27.192;2022-08-02T02:48:49;99331.41;;;19.68;72.82
62201;BME280;48197;42.732;27.192;2022-08-02T02:51:17;99329.31;;;19.77;72.44
62201;BME280;48197;42.732;27.192;2022-08-02T02:53:43;99332.19;;;19.92;71.84
62201;BME280;48197;42.732;27.192;2022-08-02T02:56:18;99338.53;;;20.02;71.31
62201;BME280;48197;42.732;27.192;2022-08-02T02:58:47;99344.53;;;20.10;71.09
62201;BME280;48197;42.732;27.192;2022-08-02T03:01:14;99337.50;;;20.14;70.84
62201;BME280;48197;42.732;27.192;2022-08-02T03:03:54;99338.56;;;20.17;70.44
62201;BME280;48197;42.732;27.192;2022-08-02T03:06:24;99336.81;;;20.19;70.47
62201;BME280;48197;42.732;27.192;2022-08-02T03:08:52;99350.84;;;20.19;70.30
62201;BME280;48197;42.732;27.192;2022-08-02T03:11:18;99350.84;;;20.19;70.41
62201;BME280;48197;42.732;27.192;2022-08-02T03:13:45;99345.72;;;20.18;70.40
62201;BME280;48197;42.732;27.192;2022-08-02T03:16:12;99344.94;;;20.17;70.42
62201;BME280;48197;42.732;27.192;2022-08-02T03:18:40;99341.84;;;20.15;70.50
62201;BME280;48197;42.732;27.192;2022-08-02T03:21:11;99342.81;;;20.12;70.77
62201;BME280;48197;42.732;27.192;2022-08-02T03:23:40;99346.84;;;20.11;70.69
62201;BME280;48197;42.732;27.192;2022-08-02T03:26:07;99342.81;;;20.12;70.65
62201;BME280;48197;42.732;27.192;2022-08-02T03:28:34;99345.91;;;20.14;70.76
62201;BME280;48197;42.732;27.192;2022-08-02T03:31:01;99356.94;;;20.18;70.68
62201;BME280;48197;42.732;27.192;2022-08-02T03:33:27;99356.75;;;20.22;70.59
62201;BME280;48197;42.732;27.192;2022-08-02T03:36:00;99364.03;;;20.28;70.24
62201;BME280;48197;42.732;27.192;2022-08-02T03:38:30;99366.97;;;20.34;70.31
62201;BME280;48197;42.732;27.192;2022-08-02T03:40:59;99364.91;;;20.34;70.15
62201;BME280;48197;42.732;27.192;2022-08-02T03:43:28;99371.28;;;20.35;70.19
62201;BME280;48197;42.732;27.192;2022-08-02T03:45:55;99373.16;;;20.38;70.16
62201;BME280;48197;42.732;27.192;2022-08-02T03:48:23;99376.56;;;20.42;70.06
62201;BME280;48197;42.732;27.192;2022-08-02T03:50:51;99378.50;;;20.51;69.80
62201;BME280;48197;42.732;27.192;2022-08-02T03:53:20;99371.56;;;20.61;69.34
62201;BME280;48197;42.732;27.192;2022-08-02T04:07:58;99387.97;;;21.07;68.14
62201;BME280;48197;42.732;27.192;2022-08-02T04:10:25;99393.97;;;21.15;67.76
62201;BME280;48197;42.732;27.192;2022-08-02T04:12:51;99387.94;;;21.22;67.55
62201;BME280;48197;42.732;27.192;2022-08-02T04:15:18;99384.94;;;21.26;67.15
62201;BME280;48197;42.732;27.192;2022-08-02T04:17:52;99388.53;;;21.26;67.34
62201;BME280;48197;42.732;27.192;2022-08-02T04:32:32;99384.63;;;21.38;66.67
62201;BME280;48197;42.732;27.192;2022-08-02T04:34:59;99388.06;;;21.43;66.32
62201;BME280;48197;42.732;27.192;2022-08-02T04:40:29;99388.78;;;21.58;66.01
62201;BME280;48197;42.732;27.192;2022-08-02T04:42:56;99385.56;;;21.65;65.69
62201;BME280;48197;42.732;27.192;2022-08-02T04:45:23;99384.19;;;21.75;65.59
62201;BME280;48197;42.732;27.192;2022-08-02T04:47:51;99388.13;;;21.84;65.58
62201;BME280;48197;42.732;27.192;2022-08-02T04:50:17;99389.31;;;21.97;65.00
62201;BME280;48197;42.732;27.192;2022-08-02T04:55:44;99402.41;;;22.21;63.11
62201;BME280;48197;42.732;27.192;2022-08-02T04:58:12;99396.31;;;22.43;62.41
62201;BME280;48197;42.732;27.192;2022-08-02T05:00:38;99401.78;;;22.73;61.48
62201;BME280;48197;42.732;27.192;2022-08-02T05:15:15;99397.78;;;22.59;61.06
62201;BME280;48197;42.732;27.192;2022-08-02T05:17:44;99404.72;;;22.63;60.83
62201;BME280;48197;42.732;27.192;2022-08-02T05:20:11;99408.66;;;22.72;60.60
62201;BME280;48197;42.732;27.192;2022-08-02T05:22:41;99410.06;;;22.82;60.29
62201;BME280;48197;42.732;27.192;2022-08-02T05:25:09;99406.28;;;22.91;59.80
62201;BME280;48197;42.732;27.192;2022-08-02T05:27:36;99417.63;;;22.96;59.70
62201;BME280;48197;42.732;27.192;2022-08-02T05:30:03;99415.00;;;23.13;59.68
62201;BME280;48197;42.732;27.192;2022-08-02T05:32:30;99418.72;;;23.31;58.88
62201;BME280;48197;42.732;27.192;2022-08-02T05:34:59;99417.00;;;23.39;58.55
62201;BME280;48197;42.732;27.192;2022-08-02T05:37:25;99420.50;;;23.60;58.21
62201;BME280;48197;42.732;27.192;2022-08-02T05:42:54;99428.41;;;23.88;56.74
62201;BME280;48197;42.732;27.192;2022-08-02T05:45:21;99432.63;;;24.15;55.59
62201;BME280;48197;42.732;27.192;2022-08-02T05:47:50;99432.31;;;24.56;54.55
62201;BME280;48197;42.732;27.192;2022-08-02T05:50:15;99436.34;;;25.26;52.16
62201;BME280;48197;42.732;27.192;2022-08-02T06:00:44;99433.91;;;27.26;46.26
62201;BME280;48197;42.732;27.192;2022-08-02T06:03:30;99443.25;;;25.87;49.84
62201;BME280;48197;42.732;27.192;2022-08-02T06:09:13;99437.91;;;27.00;47.08
62201;BME280;48197;42.732;27.192;2022-08-02T06:14:42;99433.00;;;25.44;50.07
62201;BME280;48197;42.732;27.192;2022-08-02T06:17:09;99427.81;;;25.82;50.12
62201;BME280;48197;42.732;27.192;2022-08-02T06:19:36;99434.00;;;25.70;49.73
62201;BME280;48197;42.732;27.192;2022-08-02T06:22:04;99427.81;;;24.98;51.43
62201;BME280;48197;42.732;27.192;2022-08-02T06:24:42;99438.84;;;25.07;51.76
62201;BME280;48197;42.732;27.192;2022-08-02T06:27:11;99427.22;;;27.23;47.58
62201;BME280;48197;42.732;27.192;2022-08-02T06:29:39;99428.38;;;28.81;43.22
62201;BME280;48197;42.732;27.192;2022-08-02T06:35:13;99420.28;;;29.96;40.50
62201;BME280;48197;42.732;27.192;2022-08-02T06:37:43;99423.44;;;29.01;41.66
62201;BME280;48197;42.732;27.192;2022-08-02T06:43:14;99408.53;;;28.95;41.89
62201;BME280;48197;42.732;27.192;2022-08-02T06:45:42;99418.38;;;29.13;41.19
62201;BME280;48197;42.732;27.192;2022-08-02T06:48:12;99425.22;;;29.36;41.04
62201;BME280;48197;42.732;27.192;2022-08-02T06:50:40;99423.47;;;29.33;41.04
62201;BME280;48197;42.732;27.192;2022-08-02T07:05:19;99437.63;;;30.24;38.92
62201;BME280;48197;42.732;27.192;2022-08-02T07:10:48;99437.28;;;30.28;38.54
62201;BME280;48197;42.732;27.192;2022-08-02T07:13:14;99437.88;;;30.74;37.91
62201;BME280;48197;42.732;27.192;2022-08-02T07:15:41;99440.53;;;31.06;37.00
62201;BME280;48197;42.732;27.192;2022-08-02T07:30:21;99416.91;;;30.37;37.39
62201;BME280;48197;42.732;27.192;2022-08-02T07:32:47;99419.31;;;30.33;37.29
62201;BME280;48197;42.732;27.192;2022-08-02T07:35:14;99427.84;;;30.46;37.68
62201;BME280;48197;42.732;27.192;2022-08-02T07:37:41;99419.53;;;30.96;36.85
62201;BME280;48197;42.732;27.192;2022-08-02T07:40:09;99417.88;;;31.64;35.81
62201;BME280;48197;42.732;27.192;2022-08-02T07:42:37;99425.53;;;31.69;35.43
62201;BME280;48197;42.732;27.192;2022-08-02T07:45:04;99417.16;;;31.71;35.59
62201;BME280;48197;42.732;27.192;2022-08-02T07:59:44;99435.16;;;32.88;33.44
62201;BME280;48197;42.732;27.192;2022-08-02T08:02:11;99430.06;;;33.10;33.09
62201;BME280;48197;42.732;27.192;2022-08-02T08:04:39;99432.97;;;33.56;32.24
62201;BME280;48197;42.732;27.192;2022-08-02T08:07:06;99429.94;;;33.69;32.19
62201;BME280;48197;42.732;27.192;2022-08-02T08:09:36;99426.31;;;33.84;32.21
62201;BME280;48197;42.732;27.192;2022-08-02T08:12:09;99429.50;;;33.88;32.16
62201;BME280;48197;42.732;27.192;2022-08-02T08:14:37;99423.78;;;33.96;31.76
62201;BME280;48197;42.732;27.192;2022-08-02T08:20:06;99418.66;;;33.64;32.30
62201;BME280;48197;42.732;27.192;2022-08-02T08:22:33;99413.28;;;33.75;31.99
62201;BME280;48197;42.732;27.192;2022-08-02T08:25:00;99409.47;;;33.50;32.71
62201;BME280;48197;42.732;27.192;2022-08-02T08:27:27;99422.44;;;33.28;33.03
62201;BME280;48197;42.732;27.192;2022-08-02T08:29:54;99420.34;;;33.51;32.79
62201;BME280;48197;42.732;27.192;2022-08-02T08:32:20;99419.53;;;34.20;32.14
62201;BME280;48197;42.732;27.192;2022-08-02T08:34:47;99426.88;;;33.60;32.21
62201;BME280;48197;42.732;27.192;2022-08-02T08:37:14;99430.22;;;33.04;33.00
62201;BME280;48197;42.732;27.192;2022-08-02T08:39:41;99422.78;;;33.01;33.70
62201;BME280;48197;42.732;27.192;2022-08-02T08:42:08;99423.06;;;33.42;33.71
62201;BME280;48197;42.732;27.192;2022-08-02T08:44:35;99432.75;;;33.23;33.45
62201;BME280;48197;42.732;27.192;2022-08-02T08:47:02;99433.25;;;31.82;35.57
62201;BME280;48197;42.732;27.192;2022-08-02T08:49:30;99426.47;;;30.74;37.61
62201;BME280;48197;42.732;27.192;2022-08-02T08:52:00;99428.56;;;32.28;35.21
62201;BME280;48197;42.732;27.192;2022-08-02T08:54:29;99425.84;;;32.15;34.59
62201;BME280;48197;42.732;27.192;2022-08-02T08:56:55;99415.09;;;31.50;36.37
62201;BME280;48197;42.732;27.192;2022-08-02T08:59:22;99418.06;;;31.24;36.35
62201;BME280;48197;42.732;27.192;2022-08-02T09:01:49;99422.72;;;29.91;38.49
62201;BME280;48197;42.732;27.192;2022-08-02T09:04:17;99419.97;;;30.39;38.55
62201;BME280;48197;42.732;27.192;2022-08-02T09:06:44;99410.44;;;32.18;35.87
62201;BME280;48197;42.732;27.192;2022-08-02T09:09:09;99415.78;;;33.41;33.72
62201;BME280;48197;42.732;27.192;2022-08-02T09:11:36;99419.66;;;34.45;31.81
62201;BME280;48197;42.732;27.192;2022-08-02T09:14:02;99412.16;;;34.50;30.97
62201;BME280;48197;42.732;27.192;2022-08-02T09:16:33;99420.06;;;34.34;30.58
62201;BME280;48197;42.732;27.192;2022-08-02T09:19:00;99414.84;;;32.63;33.05
62201;BME280;48197;42.732;27.192;2022-08-02T09:21:42;99408.94;;;31.96;34.43
62201;BME280;48197;42.732;27.192;2022-08-02T09:24:16;99410.88;;;32.74;33.07
62201;BME280;48197;42.732;27.192;2022-08-02T09:26:43;99409.66;;;31.89;34.24
62201;BME280;48197;42.732;27.192;2022-08-02T09:29:09;99409.53;;;31.45;34.82
62201;BME280;48197;42.732;27.192;2022-08-02T09:31:36;99410.41;;;30.98;35.96
62201;BME280;48197;42.732;27.192;2022-08-02T09:34:03;99401.09;;;31.60;35.26
62201;BME280;48197;42.732;27.192;2022-08-02T09:36:43;99407.34;;;30.96;35.98
62201;BME280;48197;42.732;27.192;2022-08-02T09:39:11;99410.34;;;30.02;37.62
62201;BME280;48197;42.732;27.192;2022-08-02T09:41:38;99405.84;;;29.35;38.61
62201;BME280;48197;42.732;27.192;2022-08-02T09:44:10;99407.75;;;28.94;39.53
62201;BME280;48197;42.732;27.192;2022-08-02T09:46:38;99411.16;;;28.74;40.57
62201;BME280;48197;42.732;27.192;2022-08-02T09:49:08;99400.59;;;29.06;39.58
62201;BME280;48197;42.732;27.192;2022-08-02T09:51:39;99396.53;;;29.80;38.39
62201;BME280;48197;42.732;27.192;2022-08-02T09:54:07;99392.84;;;30.93;37.65
62201;BME280;48197;42.732;27.192;2022-08-02T09:57:06;99397.81;;;31.85;36.47
62201;BME280;48197;42.732;27.192;2022-08-02T09:59:26;99405.78;;;31.79;35.13
62201;BME280;48197;42.732;27.192;2022-08-02T10:01:55;99392.72;;;31.91;34.86
62201;BME280;48197;42.732;27.192;2022-08-02T10:32:47;99387.28;;;30.53;35.79
62201;BME280;48197;42.732;27.192;2022-08-02T10:35:16;99393.13;;;30.08;36.78
62201;BME280;48197;42.732;27.192;2022-08-02T10:37:44;99389.63;;;29.88;37.07
62201;BME280;48197;42.732;27.192;2022-08-02T10:40:13;99393.22;;;29.89;37.47
62201;BME280;48197;42.732;27.192;2022-08-02T10:42:54;99390.50;;;29.24;38.25
62201;BME280;48197;42.732;27.192;2022-08-02T10:45:24;99394.84;;;28.74;39.35
62201;BME280;48197;42.732;27.192;2022-08-02T10:48:03;99403.91;;;28.35;40.18
62201;BME280;48197;42.732;27.192;2022-08-02T10:56:11;99388.63;;;29.27;39.00
62201;BME280;48197;42.732;27.192;2022-08-02T10:58:38;99390.63;;;30.65;37.19
62201;BME280;48197;42.732;27.192;2022-08-02T11:01:27;99378.94;;;30.90;35.85
62201;BME280;48197;42.732;27.192;2022-08-02T11:03:56;99371.72;;;31.52;35.05
62201;BME280;48197;42.732;27.192;2022-08-02T11:06:23;99377.63;;;31.83;34.41
62201;BME280;48197;42.732;27.192;2022-08-02T11:08:50;99379.97;;;32.72;33.32
62201;BME280;48197;42.732;27.192;2022-08-02T11:11:50;99383.50;;;33.40;31.67
62201;BME280;48197;42.732;27.192;2022-08-02T11:14:23;99385.16;;;34.12;30.85
62201;BME280;48197;42.732;27.192;2022-08-02T11:22:38;99383.22;;;30.83;34.48
62201;BME280;48197;42.732;27.192;2022-08-02T11:27:53;99384.59;;;29.36;37.18
62201;BME280;48197;42.732;27.192;2022-08-02T11:30:19;99381.16;;;29.10;37.31
62201;BME280;48197;42.732;27.192;2022-08-02T11:32:46;99374.78;;;29.50;36.91
62201;BME280;48197;42.732;27.192;2022-08-02T11:35:14;99375.13;;;31.29;34.96
62201;BME280;48197;42.732;27.192;2022-08-02T11:37:43;99372.44;;;33.13;32.54
62201;BME280;48197;42.732;27.192;2022-08-02T11:40:14;99366.63;;;34.06;31.42
62201;BME280;48197;42.732;27.192;2022-08-02T11:42:42;99363.16;;;34.96;29.63
62201;BME280;48197;42.732;27.192;2022-08-02T11:45:10;99358.22;;;35.39;28.52
62201;BME280;48197;42.732;27.192;2022-08-02T11:47:46;99360.03;;;35.52;28.65
62201;BME280;48197;42.732;27.192;2022-08-02T12:02:25;99353.38;;;36.02;28.01
62201;BME280;48197;42.732;27.192;2022-08-02T12:07:24;99353.84;;;36.87;26.27
62201;BME280;48197;42.732;27.192;2022-08-02T12:09:51;99355.25;;;36.96;25.97
62201;BME280;48197;42.732;27.192;2022-08-02T12:17:55;99350.09;;;36.67;24.88
62201;BME280;48197;42.732;27.192;2022-08-02T12:20:40;99348.16;;;37.07;25.30
62201;BME280;48197;42.732;27.192;2022-08-02T12:23:12;99349.75;;;37.17;24.95
62201;BME280;48197;42.732;27.192;2022-08-02T12:25:39;99345.22;;;35.38;26.63
62201;BME280;48197;42.732;27.192;2022-08-02T12:28:13;99343.59;;;33.58;28.99
62201;BME280;48197;42.732;27.192;2022-08-02T12:30:49;99335.47;;;34.10;28.78
62201;BME280;48197;42.732;27.192;2022-08-02T12:33:17;99346.41;;;33.88;29.16
62201;BME280;48197;42.732;27.192;2022-08-02T12:35:47;99339.56;;;35.48;27.61
62201;BME280;48197;42.732;27.192;2022-08-02T12:38:58;99353.38;;;37.18;25.68
62201;BME280;48197;42.732;27.192;2022-08-02T12:41:26;99349.63;;;36.44;25.68
62201;BME280;48197;42.732;27.192;2022-08-02T12:43:55;99347.44;;;34.72;27.19
62201;BME280;48197;42.732;27.192;2022-08-02T12:46:22;99341.13;;;33.46;28.06
62201;BME280;48197;42.732;27.192;2022-08-02T12:48:49;99348.13;;;32.17;30.56
62201;BME280;48197;42.732;27.192;2022-08-02T12:51:28;99340.34;;;33.07;30.22
62201;BME280;48197;42.732;27.192;2022-08-02T12:54:09;99334.13;;;35.09;27.62
62201;BME280;48197;42.732;27.192;2022-08-02T12:56:37;99339.50;;;36.70;26.04
62201;BME280;48197;42.732;27.192;2022-08-02T12:59:04;99344.16;;;37.19;25.31
62201;BME280;48197;42.732;27.192;2022-08-02T13:01:31;99347.00;;;35.93;26.19
62201;BME280;48197;42.732;27.192;2022-08-02T13:03:58;99347.84;;;34.20;28.26
62201;BME280;48197;42.732;27.192;2022-08-02T13:06:26;99354.09;;;33.09;29.50
62201;BME280;48197;42.732;27.192;2022-08-02T13:08:53;99361.72;;;33.06;29.86
62201;BME280;48197;42.732;27.192;2022-08-02T13:11:21;99332.69;;;32.79;30.55
62201;BME280;48197;42.732;27.192;2022-08-02T13:13:47;99364.50;;;32.68;30.71
62201;BME280;48197;42.732;27.192;2022-08-02T13:16:14;99354.94;;;34.19;28.71
62201;BME280;48197;42.732;27.192;2022-08-02T13:18:41;99356.59;;;36.41;26.94
62201;BME280;48197;42.732;27.192;2022-08-02T13:21:08;99348.22;;;37.73;24.55
62201;BME280;48197;42.732;27.192;2022-08-02T13:23:36;99350.22;;;38.09;23.74
62201;BME280;48197;42.732;27.192;2022-08-02T13:26:03;99350.03;;;37.78;23.92
62201;BME280;48197;42.732;27.192;2022-08-02T13:28:29;99345.50;;;37.75;23.85
62201;BME280;48197;42.732;27.192;2022-08-02T13:30:56;99354.28;;;36.84;24.95
62201;BME280;48197;42.732;27.192;2022-08-02T13:33:23;99358.06;;;34.87;27.41
62201;BME280;48197;42.732;27.192;2022-08-02T13:35:49;99359.47;;;33.35;28.83
62201;BME280;48197;42.732;27.192;2022-08-02T13:38:16;99357.81;;;32.58;30.02
62201;BME280;48197;42.732;27.192;2022-08-02T13:40:43;99357.69;;;32.34;30.66
62201;BME280;48197;42.732;27.192;2022-08-02T13:43:28;99350.28;;;33.45;29.83
62201;BME280;48197;42.732;27.192;2022-08-02T13:45:54;99349.44;;;35.37;27.90
62201;BME280;48197;42.732;27.192;2022-08-02T13:48:36;99356.59;;;37.32;25.53
62201;BME280;48197;42.732;27.192;2022-08-02T13:51:03;99359.84;;;36.54;24.67
62201;BME280;48197;42.732;27.192;2022-08-02T13:53:30;99353.22;;;34.56;26.72
62201;BME280;48197;42.732;27.192;2022-08-02T13:55:57;99362.72;;;33.17;28.55
62201;BME280;48197;42.732;27.192;2022-08-02T13:58:24;99353.88;;;32.32;29.67
62201;BME280;48197;42.732;27.192;2022-08-02T14:00:51;99353.66;;;31.86;30.75
62201;BME280;48197;42.732;27.192;2022-08-02T14:03:18;99362.25;;;31.93;31.29
62201;BME280;48197;42.732;27.192;2022-08-02T14:05:44;99347.38;;;33.91;29.28
62201;BME280;48197;42.732;27.192;2022-08-02T14:08:10;99345.88;;;35.29;27.89
62201;BME280;48197;42.732;27.192;2022-08-02T14:10:36;99350.38;;;35.40;27.43
62201;BME280;48197;42.732;27.192;2022-08-02T14:13:03;99348.41;;;34.26;28.63
62201;BME280;48197;42.732;27.192;2022-08-02T14:15:29;99350.84;;;33.43;29.37
62201;BME280;48197;42.732;27.192;2022-08-02T14:17:56;99365.78;;;32.51;30.22
62201;BME280;48197;42.732;27.192;2022-08-02T14:20:23;99360.00;;;32.36;30.38
62201;BME280;48197;42.732;27.192;2022-08-02T14:22:49;99362.16;;;32.51;30.34
62201;BME280;48197;42.732;27.192;2022-08-02T14:37:41;99357.81;;;32.58;30.57
62201;BME280;48197;42.732;27.192;2022-08-02T14:40:08;99368.19;;;32.32;30.97
62201;BME280;48197;42.732;27.192;2022-08-02T14:42:34;99366.50;;;31.71;31.95
62201;BME280;48197;42.732;27.192;2022-08-02T14:45:00;99359.63;;;31.67;31.89
62201;BME280;48197;42.732;27.192;2022-08-02T14:47:27;99360.69;;;32.13;31.68
62201;BME280;48197;42.732;27.192;2022-08-02T14:49:58;99359.97;;;32.80;30.57
62201;BME280;48197;42.732;27.192;2022-08-02T14:52:25;99362.50;;;33.22;29.63
62201;BME280;48197;42.732;27.192;2022-08-02T14:54:52;99367.09;;;33.25;29.88
62201;BME280;48197;42.732;27.192;2022-08-02T14:57:18;99360.34;;;33.92;29.13
62201;BME280;48197;42.732;27.192;2022-08-02T14:59:45;99356.78;;;34.32;28.89
62201;BME280;48197;42.732;27.192;2022-08-02T15:02:12;99353.47;;;33.87;29.24
62201;BME280;48197;42.732;27.192;2022-08-02T15:04:39;99352.34;;;32.98;30.06
62201;BME280;48197;42.732;27.192;2022-08-02T15:07:06;99360.44;;;32.48;30.61
62201;BME280;48197;42.732;27.192;2022-08-02T15:09:32;99347.13;;;32.58;30.92
62201;BME280;48197;42.732;27.192;2022-08-02T15:11:59;99354.84;;;33.02;30.46
62201;BME280;48197;42.732;27.192;2022-08-02T15:14:25;99344.97;;;33.10;29.37
62201;BME280;48197;42.732;27.192;2022-08-02T15:16:54;99345.50;;;32.93;29.23
62201;BME280;48197;42.732;27.192;2022-08-02T15:19:21;99340.19;;;33.13;29.58
62201;BME280;48197;42.732;27.192;2022-08-02T15:21:48;99337.69;;;33.32;28.97
62201;BME280;48197;42.732;27.192;2022-08-02T15:24:15;99345.72;;;33.34;29.34
62201;BME280;48197;42.732;27.192;2022-08-02T15:26:42;99343.03;;;33.51;29.16
62201;BME280;48197;42.732;27.192;2022-08-02T15:29:11;99341.31;;;33.64;28.73
62201;BME280;48197;42.732;27.192;2022-08-02T15:31:38;99347.75;;;33.95;28.53
62201;BME280;48197;42.732;27.192;2022-08-02T15:34:04;99340.97;;;34.23;28.36
62201;BME280;48197;42.732;27.192;2022-08-02T15:36:31;99346.72;;;34.64;28.03
62201;BME280;48197;42.732;27.192;2022-08-02T15:38:58;99345.81;;;34.46;28.23
62201;BME280;48197;42.732;27.192;2022-08-02T15:41:24;99353.00;;;34.29;28.20
62201;BME280;48197;42.732;27.192;2022-08-02T15:43:51;99355.25;;;33.67;29.04
62201;BME280;48197;42.732;27.192;2022-08-02T15:46:18;99354.66;;;33.00;30.10
62201;BME280;48197;42.732;27.192;2022-08-02T15:48:44;99351.34;;;32.57;30.83
62201;BME280;48197;42.732;27.192;2022-08-02T15:51:11;99356.66;;;32.09;31.42
62201;BME280;48197;42.732;27.192;2022-08-02T15:53:39;99353.09;;;31.59;32.04
62201;BME280;48197;42.732;27.192;2022-08-02T15:56:05;99356.41;;;31.00;32.77
62201;BME280;48197;42.732;27.192;2022-08-02T15:58:32;99359.63;;;30.48;33.75
62201;BME280;48197;42.732;27.192;2022-08-02T16:00:59;99358.72;;;30.06;34.48
62201;BME280;48197;42.732;27.192;2022-08-02T16:03:26;99368.81;;;29.80;34.94
62201;BME280;48197;42.732;27.192;2022-08-02T16:05:52;99363.06;;;29.54;35.34
62201;BME280;48197;42.732;27.192;2022-08-02T16:08:19;99362.41;;;29.34;36.23
62201;BME280;48197;42.732;27.192;2022-08-02T16:10:48;99371.44;;;29.19;36.27
62201;BME280;48197;42.732;27.192;2022-08-02T16:13:14;99379.25;;;29.00;36.33
62201;BME280;48197;42.732;27.192;2022-08-02T16:15:59;99382.25;;;28.88;37.15